Time;durP1;ratioP1;P1;durP2;ratioP2;P2;SDS_P1;SDS_P2;PMS_P1;PMS_P2;Temp;Humidity;BMP_temperature;BMP_pressure;BME280_temperature;BME280_humidity;BME280_pressure;Samples;Min_cycle;Max_cycle;Signal;HPM_P1;HPM_P2
2024/01/14 00:00:00;;;;;;;20.43;9.83;;;;;;;;;;5047640;28;20465;-26
2024/01/14 00:02:38;;;;;;;19.10;8.87;;;;;;;;;;5044705;28;20214;-27
2024/01/14 00:05:11;;;;;;;24.60;10.53;;;;;;;;;;5024426;28;20235;-27
2024/01/14 00:07:41;;;;;;;25.43;11.40;;;;;;;;;;5034239;28;20611;-27
2024/01/14 00:10:14;;;;;;;21.63;9.07;;;;;;;;;;5034740;28;20609;-27
2024/01/14 00:12:43;;;;;;;22.30;10.13;;;;;;;;;;5031913;28;20215;-28
2024/01/14 00:15:12;;;;;;;19.03;9.23;;;;;;;;;;5029521;28;20231;-26
2024/01/14 00:17:43;;;;;;;21.37;10.63;;;;;;;;;;5032176;28;20211;-27
2024/01/14 00:20:14;;;;;;;20.63;9.40;;;;;;;;;;5022192;28;20281;-28
2024/01/14 00:22:43;;;;;;;23.80;10.57;;;;;;;;;;5032714;28;20214;-27
2024/01/14 00:25:17;;;;;;;22.47;11.23;;;;;;;;;;5034279;28;20262;-27
2024/01/14 00:27:47;;;;;;;23.17;11.83;;;;;;;;;;5031706;28;20270;-27
2024/01/14 00:30:16;;;;;;;25.93;11.10;;;;;;;;;;5019834;28;20216;-26
2024/01/14 00:32:50;;;;;;;20.97;11.10;;;;;;;;;;5032437;28;20203;-27
2024/01/14 00:35:25;;;;;;;22.27;9.83;;;;;;;;;;5021369;28;20251;-28
2024/01/14 00:37:54;;;;;;;21.83;10.07;;;;;;;;;;5026505;28;20221;-29
2024/01/14 00:40:33;;;;;;;28.57;11.67;;;;;;;;;;5033135;28;20226;-27
2024/01/14 00:43:05;;;;;;;28.30;11.00;;;;;;;;;;5033051;28;20217;-26
2024/01/14 00:45:34;;;;;;;22.57;11.23;;;;;;;;;;5007499;28;20241;-27
2024/01/14 00:48:05;;;;;;;25.00;11.80;;;;;;;;;;5033956;28;20277;-26
2024/01/14 00:50:33;;;;;;;19.23;9.83;;;;;;;;;;5030039;28;20203;-26
2024/01/14 00:53:07;;;;;;;25.90;10.70;;;;;;;;;;5033149;28;20199;-27
2024/01/14 00:55:35;;;;;;;20.50;9.70;;;;;;;;;;5033230;28;20245;-27
2024/01/14 00:58:07;;;;;;;22.13;10.93;;;;;;;;;;5032394;28;20225;-28
2024/01/14 01:00:35;;;;;;;23.13;11.53;;;;;;;;;;5027391;28;20893;-27
2024/01/14 01:03:05;;;;;;;26.60;10.77;;;;;;;;;;5032798;28;20238;-26
2024/01/14 01:05:36;;;;;;;26.23;11.50;;;;;;;;;;5016770;28;20712;-28
2024/01/14 01:08:07;;;;;;;22.87;10.97;;;;;;;;;;5026909;28;20293;-25
2024/01/14 01:10:39;;;;;;;17.57;8.20;;;;;;;;;;5032814;28;20261;-28
2024/01/14 01:13:07;;;;;;;22.37;11.70;;;;;;;;;;5027188;28;20211;-27
2024/01/14 01:15:37;;;;;;;23.60;10.30;;;;;;;;;;5022228;28;20246;-27
2024/01/14 01:18:07;;;;;;;18.87;9.47;;;;;;;;;;5031843;28;20218;-28
2024/01/14 01:20:41;;;;;;;20.40;9.73;;;;;;;;;;5024401;28;20309;-26
2024/01/14 01:23:09;;;;;;;25.03;11.93;;;;;;;;;;5032788;28;20226;-28
2024/01/14 01:25:41;;;;;;;23.00;11.07;;;;;;;;;;5032008;28;20234;-27
2024/01/14 01:28:11;;;;;;;29.17;12.47;;;;;;;;;;5027962;28;20207;-28
2024/01/14 01:30:43;;;;;;;23.70;12.00;;;;;;;;;;5024697;28;20302;-26
2024/01/14 01:33:15;;;;;;;29.73;12.97;;;;;;;;;;5032578;28;20230;-28
2024/01/14 01:35:47;;;;;;;26.00;12.17;;;;;;;;;;5023978;28;20234;-25
2024/01/14 01:38:17;;;;;;;20.70;10.77;;;;;;;;;;5027664;28;20594;-26
2024/01/14 01:40:47;;;;;;;24.70;13.40;;;;;;;;;;5032040;28;20234;-28
2024/01/14 01:43:21;;;;;;;24.10;12.03;;;;;;;;;;5031034;28;20210;-26
2024/01/14 01:45:53;;;;;;;20.67;11.07;;;;;;;;;;5024104;28;20229;-27
2024/01/14 01:48:25;;;;;;;19.87;11.47;;;;;;;;;;5032500;28;20248;-26
2024/01/14 01:50:58;;;;;;;27.13;12.60;;;;;;;;;;5028765;28;20653;-27
2024/01/14 01:53:30;;;;;;;30.87;12.70;;;;;;;;;;5028346;28;20272;-29
2024/01/14 01:56:02;;;;;;;24.83;11.80;;;;;;;;;;5025408;28;20223;-27
2024/01/14 01:58:33;;;;;;;28.63;13.17;;;;;;;;;;5023218;28;20304;-28
2024/01/14 02:01:13;;;;;;;24.73;12.03;;;;;;;;;;5029332;28;20235;-26
2024/01/14 02:03:51;;;;;;;22.03;10.97;;;;;;;;;;5025265;28;20629;-26
2024/01/14 02:06:20;;;;;;;33.23;12.10;;;;;;;;;;5019245;28;20229;-26
2024/01/14 02:08:50;;;;;;;26.03;12.77;;;;;;;;;;5031040;28;20290;-28
2024/01/14 02:11:19;;;;;;;24.60;11.07;;;;;;;;;;5029530;28;20569;-28
2024/01/14 02:13:48;;;;;;;27.00;11.90;;;;;;;;;;5024898;28;20214;-26
2024/01/14 02:16:17;;;;;;;27.50;13.03;;;;;;;;;;5028467;28;20230;-27
2024/01/14 02:18:50;;;;;;;26.47;13.73;;;;;;;;;;5024837;28;20217;-27
2024/01/14 02:21:21;;;;;;;28.73;12.90;;;;;;;;;;5020212;28;20649;-28
2024/01/14 02:23:58;;;;;;;26.90;9.43;;;;;;;;;;5031511;28;20210;-27
2024/01/14 02:26:30;;;;;;;26.10;13.20;;;;;;;;;;5032706;28;20205;-27
2024/01/14 02:29:01;;;;;;;32.40;14.07;;;;;;;;;;5737061;22;20209;-33
2024/01/14 02:31:33;;;;;;;32.97;14.17;;;;;;;;;;5043330;28;20221;-33
2024/01/14 02:34:06;;;;;;;33.10;13.93;;;;;;;;;;5445369;22;20664;-35
2024/01/14 02:36:38;;;;;;;28.67;14.67;;;;;;;;;;5445160;22;20305;-34
2024/01/14 02:39:17;;;;;;;29.77;13.57;;;;;;;;;;5036920;28;20241;-31
2024/01/14 02:41:48;;;;;;;32.80;14.80;;;;;;;;;;5041200;28;20242;-33
2024/01/14 02:44:26;;;;;;;26.67;12.80;;;;;;;;;;5035589;28;20234;-37
2024/01/14 02:46:54;;;;;;;29.87;13.73;;;;;;;;;;5023154;28;20210;-32
2024/01/14 02:49:23;;;;;;;32.20;14.87;;;;;;;;;;5015954;28;20211;-32
2024/01/14 02:51:54;;;;;;;31.37;14.03;;;;;;;;;;5021314;28;20210;-36
2024/01/14 02:54:30;;;;;;;31.33;14.53;;;;;;;;;;5030900;28;20218;-30
2024/01/14 02:57:00;;;;;;;30.33;13.90;;;;;;;;;;5020577;28;20310;-35
2024/01/14 02:59:28;;;;;;;33.63;14.63;;;;;;;;;;5025467;28;20213;-37
2024/01/14 03:01:56;;;;;;;24.27;11.97;;;;;;;;;;5154985;22;20240;-27
2024/01/14 03:04:27;;;;;;;25.00;12.47;;;;;;;;;;5059707;28;20234;-29
2024/01/14 03:06:56;;;;;;;26.17;12.27;;;;;;;;;;5047933;28;20206;-28
2024/01/14 03:09:27;;;;;;;31.63;14.40;;;;;;;;;;5055853;28;20206;-26
2024/01/14 03:11:55;;;;;;;32.03;14.90;;;;;;;;;;5272027;22;20234;-28
2024/01/14 03:14:32;;;;;;;29.63;14.13;;;;;;;;;;5033222;28;20232;-28
2024/01/14 03:17:16;;;;;;;28.83;14.53;;;;;;;;;;5035566;28;20718;-26
2024/01/14 03:19:49;;;;;;;28.13;14.87;;;;;;;;;;5026937;28;20226;-27
2024/01/14 03:22:20;;;;;;;29.87;13.10;;;;;;;;;;5034983;28;20214;-28
2024/01/14 03:24:50;;;;;;;27.93;14.87;;;;;;;;;;5034930;28;20226;-26
2024/01/14 03:27:24;;;;;;;35.33;15.67;;;;;;;;;;5033919;28;20207;-27
2024/01/14 03:29:54;;;;;;;31.57;14.73;;;;;;;;;;5029978;28;20344;-26
2024/01/14 03:32:22;;;;;;;28.53;12.77;;;;;;;;;;5035226;28;20298;-28
2024/01/14 03:35:00;;;;;;;28.90;14.20;;;;;;;;;;5029398;28;20229;-27
2024/01/14 03:37:28;;;;;;;28.00;14.67;;;;;;;;;;5034782;28;20233;-27
2024/01/14 03:40:02;;;;;;;33.37;15.90;;;;;;;;;;5027638;28;20199;-25
2024/01/14 03:42:32;;;;;;;26.37;13.20;;;;;;;;;;5035068;28;20210;-26
2024/01/14 03:45:03;;;;;;;29.63;14.20;;;;;;;;;;5019282;28;20250;-27
2024/01/14 03:47:33;;;;;;;27.33;12.77;;;;;;;;;;5035270;28;20210;-27
2024/01/14 03:50:08;;;;;;;26.33;14.07;;;;;;;;;;5020762;28;20640;-27
2024/01/14 03:52:38;;;;;;;27.30;13.47;;;;;;;;;;5034275;28;20210;-28
2024/01/14 03:55:07;;;;;;;33.53;14.80;;;;;;;;;;5035217;28;20228;-25
2024/01/14 03:57:41;;;;;;;32.20;14.67;;;;;;;;;;5025453;28;20207;-28
2024/01/14 04:00:13;;;;;;;29.70;14.87;;;;;;;;;;5009688;28;20226;-27
2024/01/14 04:02:44;;;;;;;27.00;12.10;;;;;;;;;;5033897;28;20210;-26
2024/01/14 04:05:18;;;;;;;30.97;13.77;;;;;;;;;;5027528;28;20570;-26
2024/01/14 04:07:49;;;;;;;25.63;13.03;;;;;;;;;;5025613;28;20293;-26
2024/01/14 04:10:18;;;;;;;27.47;11.50;;;;;;;;;;5032699;28;20213;-26
2024/01/14 04:12:46;;;;;;;26.13;13.53;;;;;;;;;;5030177;28;20210;-26
2024/01/14 04:15:17;;;;;;;30.17;13.50;;;;;;;;;;5026523;28;20235;-27
2024/01/14 04:17:48;;;;;;;27.00;13.40;;;;;;;;;;5031691;28;20202;-28
2024/01/14 04:20:19;;;;;;;29.37;14.23;;;;;;;;;;5028595;28;20211;-25
2024/01/14 04:22:47;;;;;;;28.53;13.37;;;;;;;;;;5034488;28;20215;-29
2024/01/14 04:25:15;;;;;;;28.07;13.27;;;;;;;;;;5034150;28;20246;-28
2024/01/14 04:27:46;;;;;;;30.57;14.10;;;;;;;;;;5031963;28;20210;-28
2024/01/14 04:30:17;;;;;;;22.77;12.67;;;;;;;;;;5026518;28;20209;-27
2024/01/14 04:32:47;;;;;;;32.80;15.60;;;;;;;;;;5033835;28;20210;-25
2024/01/14 04:35:16;;;;;;;28.73;13.13;;;;;;;;;;5025620;28;20700;-28
2024/01/14 04:37:44;;;;;;;23.43;13.43;;;;;;;;;;5032883;28;20285;-26
2024/01/14 04:45:16;;;;;;;30.67;14.10;;;;;;;;;;5442442;22;20638;-26
2024/01/14 04:47:48;;;;;;;20.87;10.83;;;;;;;;;;5019436;28;20214;-27
2024/01/14 04:50:21;;;;;;;26.23;13.07;;;;;;;;;;5038326;28;20214;-27
2024/01/14 04:55:26;;;;;;;29.17;12.37;;;;;;;;;;5513130;22;20242;-27
2024/01/14 04:58:06;;;;;;;26.90;12.03;;;;;;;;;;5069450;28;20209;-27
2024/01/14 05:00:38;;;;;;;31.50;14.43;;;;;;;;;;5056261;28;20296;-25
2024/01/14 05:03:11;;;;;;;28.60;13.53;;;;;;;;;;5063512;28;20253;-26
2024/01/14 05:05:41;;;;;;;27.73;12.83;;;;;;;;;;5061667;28;20229;-26
2024/01/14 05:08:09;;;;;;;33.83;14.27;;;;;;;;;;5061895;28;20217;-26
2024/01/14 05:10:43;;;;;;;30.10;13.13;;;;;;;;;;5059876;28;20208;-25
2024/01/14 05:13:18;;;;;;;27.63;12.63;;;;;;;;;;5061156;28;20210;-26
2024/01/14 05:15:49;;;;;;;27.83;12.03;;;;;;;;;;5056119;28;20308;-26
2024/01/14 05:18:19;;;;;;;35.87;15.33;;;;;;;;;;5060874;28;20552;-26
2024/01/14 05:20:48;;;;;;;29.53;13.47;;;;;;;;;;5065884;28;20232;-27
2024/01/14 05:23:23;;;;;;;30.23;14.37;;;;;;;;;;5067312;28;20202;-26
2024/01/14 05:25:57;;;;;;;28.63;14.20;;;;;;;;;;5059733;28;20223;-27
2024/01/14 05:28:32;;;;;;;34.63;13.23;;;;;;;;;;5062925;28;20234;-25
2024/01/14 05:31:08;;;;;;;33.20;13.57;;;;;;;;;;5068519;28;20208;-27
2024/01/14 05:33:43;;;;;;;34.83;13.90;;;;;;;;;;5053289;28;20210;-26
2024/01/14 05:36:13;;;;;;;29.40;13.37;;;;;;;;;;5055839;28;20221;-26
2024/01/14 05:38:45;;;;;;;33.33;14.10;;;;;;;;;;5068447;28;20198;-27
2024/01/14 05:41:14;;;;;;;29.87;12.63;;;;;;;;;;5056914;28;20220;-26
2024/01/14 05:43:44;;;;;;;30.50;12.57;;;;;;;;;;5057933;28;20236;-26
2024/01/14 05:46:16;;;;;;;28.87;12.07;;;;;;;;;;5052575;28;20229;-27
2024/01/14 05:48:50;;;;;;;29.30;12.60;;;;;;;;;;5052044;28;20945;-25
2024/01/14 05:51:18;;;;;;;29.43;11.43;;;;;;;;;;5056475;28;20206;-27
2024/01/14 05:53:49;;;;;;;25.73;11.93;;;;;;;;;;5060266;28;20209;-27
2024/01/14 05:56:26;;;;;;;22.40;10.07;;;;;;;;;;5067433;28;20237;-26
2024/01/14 05:58:55;;;;;;;22.30;9.83;;;;;;;;;;5060979;28;20208;-28
2024/01/14 06:01:26;;;;;;;31.87;12.37;;;;;;;;;;5063877;28;20213;-26
2024/01/14 06:04:00;;;;;;;25.03;11.17;;;;;;;;;;5057663;28;20213;-26
2024/01/14 06:06:28;;;;;;;26.23;11.70;;;;;;;;;;5056038;28;20655;-26
2024/01/14 06:08:59;;;;;;;22.87;11.67;;;;;;;;;;5053662;28;20233;-28
2024/01/14 06:11:31;;;;;;;28.83;10.97;;;;;;;;;;5058012;28;20208;-25
2024/01/14 06:14:00;;;;;;;14.40;7.13;;;;;;;;;;5053059;28;20209;-28
2024/01/14 06:16:29;;;;;;;26.97;12.53;;;;;;;;;;5052558;28;20230;-26
2024/01/14 06:19:03;;;;;;;22.60;10.57;;;;;;;;;;5053727;28;20592;-28
2024/01/14 06:21:32;;;;;;;27.27;11.83;;;;;;;;;;5069928;28;20717;-27
2024/01/14 06:24:04;;;;;;;29.80;11.83;;;;;;;;;;5063751;28;20201;-26
2024/01/14 06:26:32;;;;;;;28.00;10.73;;;;;;;;;;5058414;28;20236;-25
2024/01/14 06:29:11;;;;;;;25.30;11.03;;;;;;;;;;5058644;28;20205;-27
2024/01/14 06:34:08;;;;;;;36.10;13.67;;;;;;;;;;5446929;22;20222;-33
2024/01/14 06:36:38;;;;;;;29.67;12.57;;;;;;;;;;5042687;28;20594;-35
2024/01/14 06:39:10;;;;;;;25.47;10.40;;;;;;;;;;5047807;28;20224;-34
2024/01/14 06:41:40;;;;;;;21.60;11.47;;;;;;;;;;5052681;28;20224;-37
2024/01/14 06:44:08;;;;;;;29.27;11.27;;;;;;;;;;5050173;28;20202;-36
2024/01/14 06:46:44;;;;;;;25.27;10.23;;;;;;;;;;5046024;28;20202;-34
2024/01/14 06:49:14;;;;;;;23.93;9.67;;;;;;;;;;5035695;28;20213;-36
2024/01/14 06:51:48;;;;;;;29.57;12.47;;;;;;;;;;5045975;28;20198;-32
2024/01/14 06:54:16;;;;;;;32.97;11.77;;;;;;;;;;5039485;28;20235;-31
2024/01/14 06:56:45;;;;;;;28.73;11.87;;;;;;;;;;5043912;28;20198;-33
2024/01/14 06:59:14;;;;;;;27.97;12.10;;;;;;;;;;5042849;28;20568;-34
2024/01/14 07:01:42;;;;;;;35.50;15.07;;;;;;;;;;5043845;28;20218;-34
2024/01/14 07:04:10;;;;;;;35.10;15.00;;;;;;;;;;5033037;28;20202;-36
2024/01/14 07:06:40;;;;;;;28.37;12.97;;;;;;;;;;5035326;28;20293;-34
2024/01/14 07:09:10;;;;;;;33.50;13.73;;;;;;;;;;5034768;28;20556;-31
2024/01/14 07:11:41;;;;;;;26.00;11.70;;;;;;;;;;5042183;28;20642;-32
2024/01/14 07:14:09;;;;;;;30.93;13.37;;;;;;;;;;5046293;28;20877;-35
2024/01/14 07:16:36;;;;;;;28.87;12.27;;;;;;;;;;5049034;28;20289;-35
2024/01/14 07:19:04;;;;;;;31.83;13.57;;;;;;;;;;5043481;28;20207;-36
2024/01/14 07:21:31;;;;;;;31.97;13.37;;;;;;;;;;5044181;28;20226;-33
2024/01/14 07:24:01;;;;;;;30.90;12.37;;;;;;;;;;5040053;28;20217;-37
2024/01/14 07:26:40;;;;;;;29.43;13.20;;;;;;;;;;5020942;28;20230;-31
2024/01/14 07:29:11;;;;;;;29.27;12.27;;;;;;;;;;5160936;22;20233;-26
2024/01/14 07:31:40;;;;;;;33.70;13.30;;;;;;;;;;5074157;28;20194;-28
2024/01/14 07:34:09;;;;;;;27.97;13.20;;;;;;;;;;5053329;28;20206;-27
2024/01/14 07:36:49;;;;;;;29.50;12.00;;;;;;;;;;5040128;28;20613;-27
2024/01/14 07:39:29;;;;;;;26.17;11.80;;;;;;;;;;5053792;28;20201;-28
2024/01/14 07:42:01;;;;;;;33.20;13.33;;;;;;;;;;5053670;28;20217;-26
2024/01/14 07:44:38;;;;;;;26.73;12.87;;;;;;;;;;5041045;28;20248;-25
2024/01/14 07:47:10;;;;;;;29.13;11.90;;;;;;;;;;5053970;28;20210;-25
2024/01/14 07:49:55;;;;;;;24.33;11.80;;;;;;;;;;5049174;28;20264;-27
2024/01/14 07:52:25;;;;;;;34.53;12.27;;;;;;;;;;5047284;28;20517;-27
2024/01/14 07:55:00;;;;;;;28.07;12.40;;;;;;;;;;5050051;28;20214;-26
2024/01/14 07:57:40;;;;;;;32.03;13.27;;;;;;;;;;5047071;28;20255;-28
2024/01/14 08:00:09;;;;;;;29.13;12.40;;;;;;;;;;5044143;28;20295;-26
2024/01/14 08:02:38;;;;;;;28.87;11.70;;;;;;;;;;5046735;28;20276;-27
2024/01/14 08:05:09;;;;;;;31.63;11.53;;;;;;;;;;5042558;28;20325;-26
2024/01/14 08:07:59;;;;;;;25.87;12.20;;;;;;;;;;5053149;28;20202;-25
2024/01/14 08:10:31;;;;;;;26.73;12.90;;;;;;;;;;5047662;28;20229;-25
2024/01/14 08:13:02;;;;;;;29.43;13.40;;;;;;;;;;5050768;28;20218;-26
2024/01/14 08:15:34;;;;;;;28.53;13.50;;;;;;;;;;5050575;28;20313;-26
2024/01/14 08:18:02;;;;;;;31.20;13.40;;;;;;;;;;5050401;28;20212;-25
2024/01/14 08:20:34;;;;;;;27.60;11.43;;;;;;;;;;5045925;28;20263;-27
2024/01/14 08:23:02;;;;;;;26.33;12.63;;;;;;;;;;5050886;28;20316;-27
2024/01/14 08:25:46;;;;;;;29.10;13.43;;;;;;;;;;5053202;28;20218;-27
2024/01/14 08:28:18;;;;;;;29.70;13.03;;;;;;;;;;5047104;28;20213;-27
2024/01/14 08:30:46;;;;;;;30.23;13.63;;;;;;;;;;5053059;28;20202;-28
2024/01/14 08:33:14;;;;;;;22.97;10.20;;;;;;;;;;5052548;28;20202;-25
2024/01/14 08:35:43;;;;;;;32.17;13.27;;;;;;;;;;5047776;28;20271;-26
2024/01/14 08:38:23;;;;;;;31.27;14.60;;;;;;;;;;5050446;28;20202;-26
2024/01/14 08:40:53;;;;;;;27.93;12.07;;;;;;;;;;5047096;28;20229;-27
2024/01/14 08:43:22;;;;;;;29.07;13.40;;;;;;;;;;5048733;28;20299;-28
2024/01/14 08:45:54;;;;;;;33.37;14.80;;;;;;;;;;5043093;28;20381;-25
2024/01/14 08:48:22;;;;;;;32.00;14.13;;;;;;;;;;5052799;28;20216;-28
2024/01/14 08:50:53;;;;;;;34.13;14.13;;;;;;;;;;5046642;28;20210;-26
2024/01/14 08:53:27;;;;;;;24.63;11.90;;;;;;;;;;5052994;28;20198;-27
2024/01/14 08:56:01;;;;;;;28.07;12.03;;;;;;;;;;5038959;28;20265;-26
2024/01/14 08:58:39;;;;;;;27.13;13.23;;;;;;;;;;5043096;28;20295;-28
2024/01/14 09:01:12;;;;;;;26.80;12.23;;;;;;;;;;5044009;28;20313;-27
2024/01/14 09:03:44;;;;;;;27.00;11.13;;;;;;;;;;5048820;28;20226;-27
2024/01/14 09:06:21;;;;;;;31.50;14.03;;;;;;;;;;5045623;28;20436;-25
2024/01/14 09:08:52;;;;;;;28.73;13.60;;;;;;;;;;5052660;28;20632;-28
2024/01/14 09:11:23;;;;;;;32.57;13.77;;;;;;;;;;5045079;28;20229;-26
2024/01/14 09:13:50;;;;;;;27.33;15.07;;;;;;;;;;5046144;28;20249;-27
2024/01/14 09:16:19;;;;;;;29.40;13.27;;;;;;;;;;5051966;28;20692;-26
2024/01/14 09:18:47;;;;;;;29.63;13.87;;;;;;;;;;5051149;28;20249;-27
2024/01/14 09:21:21;;;;;;;32.03;15.73;;;;;;;;;;5049941;28;20214;-28
2024/01/14 09:23:57;;;;;;;30.27;13.43;;;;;;;;;;5052317;28;20217;-27
2024/01/14 09:26:30;;;;;;;29.87;12.97;;;;;;;;;;5052106;28;20202;-27
2024/01/14 09:29:01;;;;;;;31.03;13.47;;;;;;;;;;5043453;28;20210;-26
2024/01/14 09:31:31;;;;;;;28.73;13.97;;;;;;;;;;5044522;28;20198;-26
2024/01/14 09:33:59;;;;;;;29.93;14.57;;;;;;;;;;5045444;28;20628;-26
2024/01/14 09:36:30;;;;;;;31.60;16.40;;;;;;;;;;5042274;28;20198;-28
2024/01/14 09:39:02;;;;;;;31.53;15.73;;;;;;;;;;5050811;28;20202;-26
2024/01/14 09:41:34;;;;;;;35.70;15.20;;;;;;;;;;5051825;28;20248;-26
2024/01/14 09:44:05;;;;;;;31.17;16.90;;;;;;;;;;5042495;28;20211;-25
2024/01/14 09:46:34;;;;;;;34.73;15.87;;;;;;;;;;5043533;28;20199;-28
2024/01/14 09:49:03;;;;;;;29.17;13.50;;;;;;;;;;5043456;28;20210;-27
2024/01/14 09:51:31;;;;;;;29.50;13.80;;;;;;;;;;5041445;28;20726;-26
2024/01/14 09:53:59;;;;;;;31.20;14.37;;;;;;;;;;5050295;28;20198;-27
2024/01/14 09:56:27;;;;;;;32.80;15.03;;;;;;;;;;5042554;28;20198;-28
2024/01/14 09:58:56;;;;;;;30.60;13.03;;;;;;;;;;5043647;28;20237;-27
2024/01/14 10:01:23;;;;;;;29.90;12.60;;;;;;;;;;5050084;28;20198;-26
2024/01/14 10:03:51;;;;;;;28.07;12.03;;;;;;;;;;5045037;28;20590;-27
2024/01/14 10:06:19;;;;;;;33.53;14.87;;;;;;;;;;5042213;28;20254;-27
2024/01/14 10:08:46;;;;;;;26.77;14.47;;;;;;;;;;5050300;28;20224;-28
2024/01/14 10:11:18;;;;;;;30.27;14.10;;;;;;;;;;5038276;28;20236;-26
2024/01/14 10:13:46;;;;;;;29.77;14.23;;;;;;;;;;5045360;28;20198;-27
2024/01/14 10:16:15;;;;;;;32.20;14.40;;;;;;;;;;5048128;28;20291;-27
2024/01/14 10:18:43;;;;;;;27.13;13.13;;;;;;;;;;5046908;28;20209;-27
2024/01/14 10:21:11;;;;;;;32.33;15.13;;;;;;;;;;5044469;28;20206;-27
2024/01/14 10:23:39;;;;;;;28.00;12.83;;;;;;;;;;5049127;28;20218;-28
2024/01/14 10:26:07;;;;;;;29.27;13.57;;;;;;;;;;5048488;28;20225;-26
2024/01/14 10:28:34;;;;;;;31.20;14.77;;;;;;;;;;5044982;28;20221;-27
2024/01/14 10:31:02;;;;;;;29.87;14.20;;;;;;;;;;5045024;28;20210;-25
2024/01/14 10:33:32;;;;;;;32.30;16.13;;;;;;;;;;5041956;28;20198;-27
2024/01/14 10:36:00;;;;;;;29.90;14.60;;;;;;;;;;5041010;28;20241;-25
2024/01/14 10:38:27;;;;;;;28.50;13.00;;;;;;;;;;5048619;28;20297;-26
2024/01/14 10:40:54;;;;;;;30.93;14.77;;;;;;;;;;5042370;28;20225;-27
2024/01/14 10:43:24;;;;;;;29.70;13.63;;;;;;;;;;5041013;28;20248;-27
2024/01/14 10:45:52;;;;;;;29.80;13.43;;;;;;;;;;5044981;28;20228;-28
2024/01/14 10:48:25;;;;;;;31.07;14.67;;;;;;;;;;5042768;28;20205;-28
2024/01/14 10:50:56;;;;;;;29.63;13.90;;;;;;;;;;5041531;28;20220;-28
2024/01/14 10:53:24;;;;;;;26.07;12.97;;;;;;;;;;5048197;28;20210;-27
2024/01/14 10:56:01;;;;;;;28.00;12.53;;;;;;;;;;5050525;28;20855;-26
2024/01/14 10:58:32;;;;;;;32.10;13.20;;;;;;;;;;5041537;28;20716;-25
2024/01/14 11:01:00;;;;;;;28.60;14.47;;;;;;;;;;5043540;28;20299;-26
2024/01/14 11:03:29;;;;;;;31.10;14.53;;;;;;;;;;5047528;28;20228;-26
2024/01/14 11:05:58;;;;;;;31.50;14.77;;;;;;;;;;5041186;28;20226;-28
2024/01/14 11:08:25;;;;;;;35.37;13.77;;;;;;;;;;5050116;28;20210;-27
2024/01/14 11:11:00;;;;;;;27.60;13.50;;;;;;;;;;5050276;28;20572;-27
2024/01/14 11:13:32;;;;;;;29.90;14.87;;;;;;;;;;5045852;28;20755;-25
2024/01/14 11:16:05;;;;;;;25.97;11.70;;;;;;;;;;5048782;28;20691;-27
2024/01/14 11:18:40;;;;;;;29.10;14.53;;;;;;;;;;5041639;28;20206;-28
2024/01/14 11:21:22;;;;;;;27.93;13.60;;;;;;;;;;5041059;28;20202;-27
2024/01/14 11:23:52;;;;;;;26.60;13.73;;;;;;;;;;5054830;28;20222;-26
2024/01/14 11:26:20;;;;;;;29.30;13.70;;;;;;;;;;5054510;28;20290;-26
2024/01/14 11:28:54;;;;;;;33.87;15.27;;;;;;;;;;5045794;28;20203;-26
2024/01/14 11:31:23;;;;;;;32.83;14.67;;;;;;;;;;5049436;28;20684;-27
2024/01/14 11:33:59;;;;;;;29.20;13.17;;;;;;;;;;5048314;28;20202;-26
2024/01/14 11:36:43;;;;;;;29.50;13.80;;;;;;;;;;5048523;28;20656;-28
2024/01/14 11:39:18;;;;;;;28.23;12.83;;;;;;;;;;5051994;28;20228;-25
2024/01/14 11:41:47;;;;;;;32.23;14.80;;;;;;;;;;5048061;28;20267;-27
2024/01/14 11:44:29;;;;;;;32.27;15.23;;;;;;;;;;5046723;28;20225;-27
2024/01/14 11:47:02;;;;;;;28.67;13.97;;;;;;;;;;5050156;28;20251;-27
2024/01/14 11:49:35;;;;;;;35.13;16.20;;;;;;;;;;5049169;28;20205;-26
2024/01/14 11:52:09;;;;;;;28.87;13.23;;;;;;;;;;5048327;28;20285;-28
2024/01/14 11:54:39;;;;;;;28.30;14.63;;;;;;;;;;5046108;28;20214;-27
2024/01/14 11:57:23;;;;;;;32.03;15.23;;;;;;;;;;5054841;28;20274;-28
2024/01/14 11:59:56;;;;;;;27.33;11.93;;;;;;;;;;5048288;28;20202;-28
2024/01/14 12:02:30;;;;;;;27.43;13.60;;;;;;;;;;5054303;28;20248;-25
2024/01/14 12:05:16;;;;;;;31.90;14.23;;;;;;;;;;5050165;28;20214;-27
2024/01/14 12:07:44;;;;;;;31.60;14.03;;;;;;;;;;5050430;28;20663;-27
2024/01/14 12:10:18;;;;;;;22.83;11.83;;;;;;;;;;5054065;28;20226;-27
2024/01/14 12:12:47;;;;;;;23.90;10.97;;;;;;;;;;5051209;28;20230;-27
2024/01/14 12:15:16;;;;;;;23.63;11.97;;;;;;;;;;5036731;28;20234;-27
2024/01/14 12:18:02;;;;;;;28.20;9.57;;;;;;;;;;5053973;28;20215;-29
2024/01/14 12:20:32;;;;;;;23.20;11.07;;;;;;;;;;5049724;28;20234;-27
2024/01/14 12:23:02;;;;;;;26.57;12.83;;;;;;;;;;5048796;28;20294;-28
2024/01/14 12:25:31;;;;;;;29.00;14.00;;;;;;;;;;5053865;28;20308;-25
2024/01/14 12:28:00;;;;;;;28.87;15.33;;;;;;;;;;5045063;28;20194;-26
2024/01/14 12:30:30;;;;;;;31.03;14.67;;;;;;;;;;5053448;28;20214;-27
2024/01/14 12:32:59;;;;;;;24.20;12.53;;;;;;;;;;5053625;28;20264;-26
2024/01/14 12:35:37;;;;;;;28.40;13.50;;;;;;;;;;5041067;28;20302;-26
2024/01/14 12:38:07;;;;;;;19.23;9.60;;;;;;;;;;5053588;28;20259;-26
2024/01/14 12:40:37;;;;;;;25.80;12.57;;;;;;;;;;5053960;28;20206;-28
2024/01/14 12:43:07;;;;;;;28.97;13.93;;;;;;;;;;5040581;28;20321;-27
2024/01/14 12:45:48;;;;;;;24.33;13.00;;;;;;;;;;5049577;28;20640;-27
2024/01/14 12:48:23;;;;;;;32.77;15.80;;;;;;;;;;5050694;28;20211;-25
2024/01/14 12:50:56;;;;;;;28.37;13.57;;;;;;;;;;5043497;28;20198;-27
2024/01/14 12:53:25;;;;;;;30.23;14.43;;;;;;;;;;5050832;28;20210;-27
2024/01/14 12:56:08;;;;;;;29.33;12.80;;;;;;;;;;5052675;28;20563;-28
2024/01/14 12:58:37;;;;;;;26.73;13.77;;;;;;;;;;5048639;28;20205;-25
2024/01/14 13:01:06;;;;;;;22.13;11.60;;;;;;;;;;5048565;28;20212;-27
2024/01/14 13:03:41;;;;;;;29.13;11.67;;;;;;;;;;5050575;28;20238;-27
2024/01/14 13:06:12;;;;;;;24.17;13.10;;;;;;;;;;5047919;28;20225;-27
2024/01/14 13:09:04;;;;;;;29.13;13.30;;;;;;;;;;5052914;28;20198;-26
2024/01/14 13:11:37;;;;;;;23.20;12.03;;;;;;;;;;5053906;28;20202;-25
2024/01/14 13:14:09;;;;;;;25.57;12.47;;;;;;;;;;5045428;28;20236;-27
2024/01/14 13:19:07;;;;;;;24.57;12.07;;;;;;;;;;5066393;28;20316;-36
2024/01/14 13:21:39;;;;;;;27.10;12.47;;;;;;;;;;5068518;28;20740;-36
2024/01/14 13:24:10;;;;;;;27.30;13.43;;;;;;;;;;5063138;28;20253;-35
2024/01/14 13:26:42;;;;;;;22.13;11.67;;;;;;;;;;5053517;28;20206;-36
2024/01/14 13:29:16;;;;;;;22.53;10.57;;;;;;;;;;5045000;28;20301;-34
2024/01/14 13:31:53;;;;;;;20.67;10.73;;;;;;;;;;5045847;28;20221;-36
2024/01/14 13:39:30;;;;;;;20.67;11.67;;;;;;;;;;5062200;28;20310;-32
2024/01/14 13:42:05;;;;;;;27.17;10.53;;;;;;;;;;5061227;28;20198;-34
2024/01/14 13:44:37;;;;;;;20.33;10.47;;;;;;;;;;5050583;28;20245;-33
2024/01/14 13:47:16;;;;;;;20.07;10.67;;;;;;;;;;5053461;28;20228;-36
2024/01/14 13:49:45;;;;;;;19.70;11.20;;;;;;;;;;5039267;28;20201;-31
2024/01/14 13:52:23;;;;;;;22.77;11.33;;;;;;;;;;5052230;28;20216;-33
2024/01/14 14:00:01;;;;;;;23.83;11.60;;;;;;;;;;5042742;28;20240;-27
2024/01/14 14:05:00;;;;;;;21.67;11.73;;;;;;;;;;5030906;28;20708;-34
2024/01/14 14:07:39;;;;;;;21.90;11.03;;;;;;;;;;5024745;28;20207;-35
2024/01/14 14:10:10;;;;;;;19.83;10.40;;;;;;;;;;5033213;28;20206;-34
2024/01/14 14:12:40;;;;;;;25.60;11.47;;;;;;;;;;5029900;28;20256;-31
2024/01/14 14:28:05;;;;;;;18.87;9.57;;;;;;;;;;5006094;28;20216;-28
2024/01/14 14:44:21;;;;;;;21.97;10.90;;;;;;;;;;5051786;28;20317;-33
2024/01/14 14:46:54;;;;;;;20.90;10.30;;;;;;;;;;5043432;28;20201;-30
2024/01/14 14:49:25;;;;;;;23.10;10.87;;;;;;;;;;5045795;28;20225;-33
2024/01/14 14:51:55;;;;;;;21.47;10.27;;;;;;;;;;5036195;28;20202;-35
2024/01/14 14:54:29;;;;;;;22.47;10.43;;;;;;;;;;5049428;28;20283;-35
2024/01/14 14:56:58;;;;;;;22.73;10.13;;;;;;;;;;5055989;28;20206;-35
2024/01/14 14:59:32;;;;;;;19.20;10.50;;;;;;;;;;5046300;28;20218;-36
2024/01/14 15:02:00;;;;;;;21.00;9.93;;;;;;;;;;5054721;28;20206;-37
2024/01/14 15:04:32;;;;;;;20.83;10.27;;;;;;;;;;5050562;28;20636;-34
2024/01/14 15:07:05;;;;;;;20.87;10.37;;;;;;;;;;5042362;28;20202;-33
2024/01/14 15:09:37;;;;;;;18.67;9.60;;;;;;;;;;5055417;28;20202;-37
2024/01/14 15:12:08;;;;;;;20.67;10.13;;;;;;;;;;5056127;28;20248;-34
2024/01/14 15:14:48;;;;;;;17.10;9.70;;;;;;;;;;5038714;28;20234;-32
2024/01/14 15:17:16;;;;;;;20.13;10.57;;;;;;;;;;5056407;28;20241;-35
2024/01/14 15:19:48;;;;;;;19.80;9.87;;;;;;;;;;5045909;28;20721;-33
2024/01/14 15:22:21;;;;;;;20.10;9.37;;;;;;;;;;5044560;28;20229;-35
2024/01/14 15:24:51;;;;;;;19.10;9.87;;;;;;;;;;5055193;28;20308;-37
2024/01/14 15:27:26;;;;;;;22.80;10.50;;;;;;;;;;5051774;28;20213;-37
2024/01/14 15:29:57;;;;;;;20.93;9.83;;;;;;;;;;5047546;28;20726;-37
2024/01/14 15:32:26;;;;;;;19.17;10.20;;;;;;;;;;5055380;28;20210;-30
2024/01/14 15:34:59;;;;;;;19.70;9.93;;;;;;;;;;5044791;28;20767;-32